Hampton, New York
Current Conditions -  °F | °C
As of 5:15 AM on Thursday 23 Oct 2014 (Local Time) from KRUT Reporting Station
Overcast Overcast  
Wind Chill: 37°   Ceiling: 3500
Heat Index: 43°   Visibility: 10mi
Dew Point: 39°   Wind: 9mph
Humidity: 87%   Direction: 310°NW
Pressure: 29.89"   Gusts: NA
Location:  43.52°N, 73.25°W
Report Text: KRUT 230915Z 31008KT 10SM SCT014 BKN035 OVC050 06/04 A2989 RMK AO1
Loading
Personal Weather Stations






























Interactive Weather Map
Tropical Storm Tracking
New forecast layout! Learn more

10-Day Weather Forecast

Advertisements
Track Severe Weather on mobile